createdAt,value
2018-09-24T00:01:14.415Z,100810.54
2018-09-24T00:04:04.115Z,100814.38
2018-09-24T00:06:51.949Z,100828.15
2018-09-24T00:12:46.448Z,100846.57
2018-09-24T00:15:34.881Z,100858.27
2018-09-24T00:21:29.373Z,100852.00
2018-09-24T00:24:17.834Z,100867.25
2018-09-24T00:27:05.554Z,100865.64
2018-09-24T00:29:53.018Z,100875.87
2018-09-24T00:32:40.654Z,100879.64
2018-09-24T00:35:35.694Z,100884.81
2018-09-24T00:38:22.995Z,100883.91
2018-09-24T00:41:10.294Z,100890.83
2018-09-24T00:44:05.601Z,100908.61
2018-09-24T00:46:53.123Z,100910.71
2018-09-24T00:49:42.715Z,100913.92
2018-09-24T00:52:45.396Z,100913.56
2018-09-24T00:58:39.133Z,100922.23
2018-09-24T01:01:27.197Z,100929.72
2018-09-24T01:04:14.324Z,100941.77
2018-09-24T01:07:02.008Z,100943.66
2018-09-24T01:09:50.974Z,100959.50
2018-09-24T01:12:40.278Z,100953.40
2018-09-24T01:15:28.789Z,100965.84
2018-09-24T01:18:16.611Z,100971.69
2018-09-24T01:21:04.072Z,100979.61
2018-09-24T01:23:52.085Z,100979.61
2018-09-24T01:26:40.124Z,100983.23
2018-09-24T01:29:28.441Z,100996.86
2018-09-24T01:32:16.895Z,100994.72
2018-09-24T01:35:04.476Z,100998.55
2018-09-24T01:37:51.763Z,101003.83
2018-09-24T01:40:39.443Z,101008.31
2018-09-24T01:43:27.122Z,101013.42
2018-09-24T01:46:15.555Z,101030.89
2018-09-24T01:49:03.546Z,101031.16
2018-09-24T01:51:52.051Z,101041.52
2018-09-24T01:54:40.478Z,101043.86
2018-09-24T01:57:28.072Z,101047.55
2018-09-24T02:00:19.445Z,101047.98
2018-09-24T02:03:06.494Z,101055.84
2018-09-24T02:05:53.919Z,101053.75
2018-09-24T02:11:47.784Z,101059.87
2018-09-24T02:14:35.878Z,101069.84
2018-09-24T02:17:24.041Z,101076.07
2018-09-24T02:20:12.491Z,101075.34
2018-09-24T02:26:06.686Z,101087.70
2018-09-24T02:28:55.110Z,101093.26
2018-09-24T02:31:50.544Z,101100.48
2018-09-24T02:34:38.257Z,101106.19
2018-09-24T02:37:25.538Z,101107.91
2018-09-24T02:40:20.388Z,101109.62
2018-09-24T02:43:07.810Z,101121.94
2018-09-24T02:45:55.619Z,101120.73
2018-09-24T02:48:42.759Z,101125.81
2018-09-24T02:51:30.568Z,101129.94
2018-09-24T02:54:25.594Z,101140.16
2018-09-24T02:57:13.821Z,101140.64
2018-09-24T03:03:10.330Z,101150.27
2018-09-24T03:05:57.706Z,101156.49
2018-09-24T03:08:46.261Z,101164.64
2018-09-24T03:14:39.430Z,101167.20
2018-09-24T03:17:27.677Z,101177.19
2018-09-24T03:20:15.305Z,101165.83
2018-09-24T03:26:09.081Z,101190.19
2018-09-24T03:28:56.413Z,101191.32
2018-09-24T03:31:47.532Z,101204.78
2018-09-24T03:34:35.152Z,101198.73
2018-09-24T03:37:30.561Z,101198.80
2018-09-24T03:40:17.676Z,101197.77
2018-09-24T03:43:12.487Z,101204.78
2018-09-24T03:45:59.689Z,101211.80
2018-09-24T03:48:47.377Z,101201.84
2018-09-24T03:51:50.641Z,101220.13
2018-09-24T03:54:47.269Z,101216.09
2018-09-24T03:57:34.767Z,101218.12
2018-09-24T04:00:23.196Z,101228.11
2018-09-24T04:03:17.855Z,101227.00
2018-09-24T04:09:47.956Z,101234.50
2018-09-24T04:12:53.977Z,101243.06
2018-09-24T04:15:59.874Z,101248.06
2018-09-24T04:19:07.593Z,101248.33
2018-09-24T04:22:29.191Z,101245.47
2018-09-24T04:25:34.992Z,101243.44
2018-09-24T04:28:41.044Z,101238.73
2018-09-24T04:35:10.996Z,101258.88
2018-09-24T04:38:19.705Z,101267.34
2018-09-24T04:41:25.046Z,101268.29
2018-09-24T04:44:46.240Z,101286.91
2018-09-24T04:47:59.204Z,101287.36
2018-09-24T04:51:05.042Z,101291.41
2018-09-24T04:54:10.833Z,101289.62
2018-09-24T04:57:24.113Z,101296.64
2018-09-24T05:00:30.688Z,101298.20
2018-09-24T05:03:51.423Z,101306.72
2018-09-24T05:06:58.004Z,101312.91
2018-09-24T05:10:04.004Z,101317.22
2018-09-24T05:13:09.643Z,101318.06
2018-09-24T05:16:24.375Z,101326.97
2018-09-24T05:19:30.932Z,101329.53
2018-09-24T05:22:44.416Z,101332.77
2018-09-24T05:29:16.039Z,101342.09
2018-09-24T05:32:22.924Z,101350.45
2018-09-24T05:35:31.003Z,101365.27
2018-09-24T05:38:40.508Z,101365.55
2018-09-24T05:41:50.323Z,101370.52
2018-09-24T05:44:55.596Z,101375.45
2018-09-24T05:48:01.200Z,101392.56
2018-09-24T05:51:07.715Z,101392.45
2018-09-24T05:54:13.808Z,101396.19
2018-09-24T05:57:19.134Z,101402.16
2018-09-24T06:00:25.422Z,101397.66
2018-09-24T06:06:59.602Z,101406.75
2018-09-24T06:10:05.246Z,101412.90
2018-09-24T06:13:11.761Z,101402.66
2018-09-24T06:16:17.725Z,101421.95
2018-09-24T06:19:24.183Z,101427.73
2018-09-24T06:22:29.615Z,101428.61
2018-09-24T06:25:35.193Z,101429.87
2018-09-24T06:28:40.791Z,101447.88
2018-09-24T06:31:46.433Z,101444.77
2018-09-24T06:34:53.410Z,101454.64
2018-09-24T06:37:59.179Z,101455.50
2018-09-24T06:41:07.715Z,101447.95
2018-09-24T06:47:38.404Z,101456.47
2018-09-24T06:50:45.671Z,101461.84
2018-09-24T06:53:51.417Z,101468.86
2018-09-24T06:56:58.242Z,101468.41
2018-09-24T07:00:04.441Z,101482.67
2018-09-24T07:03:10.894Z,101481.49
2018-09-24T07:06:17.101Z,101492.27
2018-09-24T07:09:26.705Z,101495.98
2018-09-24T07:12:32.421Z,101513.56
2018-09-24T07:15:38.131Z,101513.88
2018-09-24T07:18:44.616Z,101508.72
2018-09-24T07:21:54.360Z,101518.97
2018-09-24T07:24:59.786Z,101518.81
2018-09-24T07:28:05.622Z,101520.41
2018-09-24T07:31:15.022Z,101538.35
2018-09-24T07:34:28.524Z,101546.34
2018-09-24T07:37:35.298Z,101548.48
2018-09-24T07:40:41.849Z,101553.36
2018-09-24T07:43:47.760Z,101560.98
2018-09-24T07:46:54.706Z,101567.73
2018-09-24T07:50:00.295Z,101574.88
2018-09-24T07:53:06.626Z,101585.69
2018-09-24T08:03:03.069Z,101600.97
2018-09-24T08:06:08.509Z,101607.26
2018-09-24T08:09:14.092Z,101616.77
2018-09-24T08:12:20.829Z,101607.20
2018-09-24T08:18:50.657Z,101624.95
2018-09-24T08:25:37.781Z,101658.22
2018-09-24T08:28:46.499Z,101668.80
2018-09-24T08:35:18.115Z,101674.02
2018-09-24T08:38:24.735Z,101689.98
2018-09-24T08:45:03.331Z,101692.27
2018-09-24T08:48:10.648Z,101689.62
2018-09-24T08:51:16.729Z,101693.80
2018-09-24T08:54:23.547Z,101694.88
2018-09-24T08:57:29.658Z,101701.20
2018-09-24T09:00:37.641Z,101698.01
2018-09-24T09:03:41.774Z,101704.79
2018-09-24T09:06:47.558Z,101695.80
2018-09-24T09:09:54.146Z,101702.14
2018-09-24T09:13:18.778Z,101702.43
2018-09-24T09:19:58.477Z,101720.72
2018-09-24T09:23:03.931Z,101710.59
2018-09-24T09:29:38.601Z,101709.84
2018-09-24T09:32:44.587Z,101723.20
2018-09-24T09:35:50.494Z,101714.02
2018-09-24T09:38:57.749Z,101717.37
2018-09-24T09:42:03.691Z,101717.08
2018-09-24T09:48:35.188Z,101731.27
2018-09-24T09:51:43.246Z,101728.59
2018-09-24T10:05:04.045Z,101743.34
2018-09-24T10:08:13.717Z,101729.47
2018-09-24T10:11:25.130Z,101743.81
2018-09-24T10:17:57.673Z,101736.98
2018-09-24T10:31:19.343Z,101752.23
2018-09-24T10:34:28.994Z,101751.38
2018-09-24T10:37:35.926Z,101757.31
2018-09-24T10:40:43.976Z,101757.00
2018-09-24T10:43:49.844Z,101763.66
2018-09-24T10:47:01.057Z,101759.58
2018-09-24T10:53:31.388Z,101765.23
2018-09-24T10:56:39.601Z,101763.55
2018-09-24T11:09:58.767Z,101779.67
2018-09-24T11:23:22.402Z,101788.58
2018-09-24T11:26:33.938Z,101782.08
2018-09-24T11:29:39.312Z,101804.88
2018-09-24T11:49:51.864Z,101797.55
2018-09-24T11:59:48.326Z,101787.48
2018-09-24T12:03:01.626Z,101797.40
2018-09-24T12:06:09.743Z,101792.47
2018-09-24T12:09:15.412Z,101789.29
2018-09-24T12:19:10.184Z,101775.67
2018-09-24T12:22:16.239Z,101779.70
2018-09-24T12:25:22.086Z,101777.25
2018-09-24T12:28:29.110Z,101778.67
2018-09-24T12:31:35.884Z,101796.07
2018-09-24T12:34:42.031Z,101786.67
2018-09-24T12:37:49.651Z,101780.89
2018-09-24T12:40:58.871Z,101782.09
2018-09-24T12:44:04.367Z,101787.62
2018-09-24T12:47:14.794Z,101791.83
2018-09-24T12:50:20.656Z,101780.58
2018-09-24T12:53:26.564Z,101800.25
2018-09-24T12:59:56.972Z,101818.70
2018-09-24T13:10:03.357Z,101861.63
2018-09-24T13:16:47.584Z,101839.78
2018-09-24T13:19:53.944Z,101845.31
2018-09-24T13:29:48.436Z,101838.84
2018-09-24T13:39:55.954Z,101838.14
2018-09-24T13:43:01.765Z,101845.84
2018-09-24T13:46:09.858Z,101840.66
2018-09-24T13:52:48.036Z,101866.66
2018-09-24T13:55:54.085Z,101878.20
2018-09-24T13:59:12.340Z,101869.39
2018-09-24T14:02:23.398Z,101868.32
2018-09-24T14:05:29.364Z,101856.09
2018-09-24T14:22:25.525Z,101860.09
2018-09-24T14:25:31.311Z,101851.33
2018-09-24T14:28:39.181Z,101858.83
2018-09-24T14:31:48.147Z,101866.23
2018-09-24T14:34:53.781Z,101865.28
2018-09-24T14:44:53.934Z,101866.92
2018-09-24T14:54:48.280Z,101870.74
2018-09-24T14:57:58.408Z,101864.53
2018-09-24T15:01:05.572Z,101872.24
2018-09-24T15:04:11.271Z,101871.39
2018-09-24T15:10:46.105Z,101870.70
2018-09-24T15:13:53.162Z,101873.50
2018-09-24T15:17:14.592Z,101876.11
2018-09-24T15:20:20.387Z,101874.42
2018-09-24T15:23:29.987Z,101878.99
2018-09-24T15:26:39.894Z,101881.41
2018-09-24T15:36:35.883Z,101877.48
2018-09-24T15:39:41.393Z,101882.17
2018-09-24T15:53:02.640Z,101883.91
2018-09-24T15:56:08.909Z,101886.02
2018-09-24T15:59:19.446Z,101888.34
2018-09-24T16:19:30.900Z,101882.20
2018-09-24T16:22:36.648Z,101886.12
2018-09-24T16:25:42.736Z,101882.34
2018-09-24T16:45:52.147Z,101910.08
2018-09-24T16:48:57.534Z,101919.75
2018-09-24T16:52:03.600Z,101920.16
2018-09-24T16:55:09.527Z,101928.66
2018-09-24T16:58:16.165Z,101930.97
2018-09-24T17:01:21.636Z,101922.35
2018-09-24T17:04:27.220Z,101928.66
2018-09-24T17:24:41.372Z,101963.83
2018-09-24T17:31:12.096Z,101973.08
2018-09-24T17:34:19.197Z,101980.61
2018-09-24T17:37:24.965Z,101985.20
2018-09-24T17:40:31.193Z,101988.02
2018-09-24T17:47:03.184Z,101997.23
2018-09-24T17:50:12.030Z,101998.66
2018-09-24T18:00:07.387Z,102014.38
2018-09-24T18:06:37.818Z,102024.36
2018-09-24T18:19:57.457Z,102027.44
2018-09-24T18:23:15.831Z,102024.61
2018-09-24T18:26:40.964Z,102030.64
2018-09-24T18:36:37.377Z,102054.16
2018-09-24T18:46:33.631Z,102058.50
2018-09-24T18:59:58.352Z,102080.90
2018-09-24T19:03:09.701Z,102085.44
2018-09-24T19:06:15.724Z,102096.47
2018-09-24T19:19:37.168Z,102122.48
2018-09-24T19:29:53.781Z,102125.41
2018-09-24T19:33:05.310Z,102128.44
2018-09-24T19:36:28.474Z,102127.95
2018-09-24T19:39:34.890Z,102140.24
2018-09-24T19:42:41.765Z,102142.88
2018-09-24T19:46:01.948Z,102153.92
2018-09-24T19:52:32.621Z,102147.12
2018-09-24T19:55:37.722Z,102152.13
2018-09-24T20:02:08.437Z,102160.38
2018-09-24T20:12:12.915Z,102158.44
2018-09-24T20:18:45.093Z,102168.61
2018-09-24T20:21:54.097Z,102165.53
2018-09-24T20:25:00.757Z,102177.38
2018-09-24T20:31:30.772Z,102182.73
2018-09-24T20:44:51.365Z,102192.56
2018-09-24T21:01:48.193Z,102205.80
2018-09-24T21:15:24.836Z,102213.22
2018-09-24T21:21:56.007Z,102232.88
2018-09-24T21:25:01.952Z,102241.33
2018-09-24T21:31:34.540Z,102245.46
2018-09-24T21:38:23.668Z,102243.87
2018-09-24T21:45:02.155Z,102252.93
2018-09-24T21:51:32.158Z,102256.45
2018-09-24T21:54:55.516Z,102258.19
2018-09-24T21:58:00.751Z,102264.37
2018-09-24T22:04:33.035Z,102286.36
2018-09-24T22:24:40.911Z,102315.96
2018-09-24T22:27:47.497Z,102309.62
2018-09-24T22:34:18.604Z,102314.27
2018-09-24T22:37:23.961Z,102322.70
2018-09-24T22:44:09.864Z,102332.07
2018-09-24T22:50:39.890Z,102333.05
2018-09-24T23:00:35.612Z,102341.47
2018-09-24T23:07:05.416Z,102346.05
2018-09-24T23:27:13.474Z,102357.91
2018-09-24T23:33:45.572Z,102368.94
2018-09-24T23:36:52.017Z,102370.27
2018-09-24T23:57:02.184Z,102383.17
